sensor_id;sensor_type;location;lat;lon;timestamp;P1;durP1;ratioP1;P2;durP2;ratioP2
934;SDS011;454;53.254;10.400;2023-04-24T04:02:40;0.50;;;0.50;;
934;SDS011;454;53.254;10.400;2023-04-24T04:05:07;0.47;;;0.38;;
934;SDS011;454;53.254;10.400;2023-04-24T04:07:34;0.40;;;0.40;;
934;SDS011;454;53.254;10.400;2023-04-24T04:10:01;0.55;;;0.55;;
934;SDS011;454;53.254;10.400;2023-04-24T04:12:28;4.50;;;0.65;;
934;SDS011;454;53.254;10.400;2023-04-24T04:14:55;0.40;;;0.40;;
934;SDS011;454;53.254;10.400;2023-04-24T04:17:21;0.25;;;0.25;;
934;SDS011;454;53.254;10.400;2023-04-24T04:19:49;0.68;;;0.68;;
934;SDS011;454;53.254;10.400;2023-04-24T04:22:16;2.35;;;1.73;;
934;SDS011;454;53.254;10.400;2023-04-24T04:24:43;0.50;;;0.50;;
934;SDS011;454;53.254;10.400;2023-04-24T04:27:11;0.40;;;0.40;;
934;SDS011;454;53.254;10.400;2023-04-24T04:29:38;0.20;;;0.20;;
934;SDS011;454;53.254;10.400;2023-04-24T04:32:05;0.85;;;0.85;;
934;SDS011;454;53.254;10.400;2023-04-24T04:34:32;0.82;;;0.82;;
934;SDS011;454;53.254;10.400;2023-04-24T04:37:00;0.30;;;0.30;;
934;SDS011;454;53.254;10.400;2023-04-24T04:39:27;0.90;;;0.90;;
934;SDS011;454;53.254;10.400;2023-04-24T04:41:54;1.15;;;1.02;;
934;SDS011;454;53.254;10.400;2023-04-24T04:44:21;0.60;;;0.60;;
934;SDS011;454;53.254;10.400;2023-04-24T04:46:48;0.50;;;0.50;;
934;SDS011;454;53.254;10.400;2023-04-24T04:49:18;0.68;;;0.60;;
934;SDS011;454;53.254;10.400;2023-04-24T04:51:46;0.30;;;0.30;;
934;SDS011;454;53.254;10.400;2023-04-24T04:54:14;0.25;;;0.25;;
934;SDS011;454;53.254;10.400;2023-04-24T04:56:41;0.52;;;0.52;;
934;SDS011;454;53.254;10.400;2023-04-24T04:59:08;0.55;;;0.55;;
934;SDS011;454;53.254;10.400;2023-04-24T05:01:36;0.30;;;0.30;;
934;SDS011;454;53.254;10.400;2023-04-24T05:04:02;0.20;;;0.20;;
934;SDS011;454;53.254;10.400;2023-04-24T05:06:29;0.77;;;0.77;;
934;SDS011;454;53.254;10.400;2023-04-24T05:08:56;0.52;;;0.52;;
934;SDS011;454;53.254;10.400;2023-04-24T05:11:24;0.30;;;0.30;;
934;SDS011;454;53.254;10.400;2023-04-24T05:13:51;0.50;;;0.50;;
934;SDS011;454;53.254;10.400;2023-04-24T05:16:17;0.52;;;0.52;;
934;SDS011;454;53.254;10.400;2023-04-24T05:18:44;0.73;;;0.47;;
934;SDS011;454;53.254;10.400;2023-04-24T05:21:11;0.35;;;0.35;;
934;SDS011;454;53.254;10.400;2023-04-24T05:23:38;0.50;;;0.50;;
934;SDS011;454;53.254;10.400;2023-04-24T05:26:04;1.58;;;0.60;;
934;SDS011;454;53.254;10.400;2023-04-24T05:28:32;0.60;;;0.60;;
934;SDS011;454;53.254;10.400;2023-04-24T05:31:01;0.73;;;0.55;;
934;SDS011;454;53.254;10.400;2023-04-24T05:33:28;1.00;;;1.00;;
934;SDS011;454;53.254;10.400;2023-04-24T05:35:55;1.02;;;1.02;;
934;SDS011;454;53.254;10.400;2023-04-24T05:38:21;0.67;;;0.67;;
934;SDS011;454;53.254;10.400;2023-04-24T05:40:48;0.43;;;0.43;;
934;SDS011;454;53.254;10.400;2023-04-24T05:43:15;4.30;;;0.93;;
934;SDS011;454;53.254;10.400;2023-04-24T05:45:43;0.30;;;0.30;;
934;SDS011;454;53.254;10.400;2023-04-24T05:48:10;0.85;;;0.55;;
934;SDS011;454;53.254;10.400;2023-04-24T05:50:36;0.47;;;0.47;;
934;SDS011;454;53.254;10.400;2023-04-24T05:53:03;0.53;;;0.53;;
934;SDS011;454;53.254;10.400;2023-04-24T05:55:31;0.30;;;0.30;;
934;SDS011;454;53.254;10.400;2023-04-24T05:57:58;1.07;;;0.60;;
934;SDS011;454;53.254;10.400;2023-04-24T06:00:25;1.20;;;0.30;;
934;SDS011;454;53.254;10.400;2023-04-24T06:02:54;0.45;;;0.45;;
934;SDS011;454;53.254;10.400;2023-04-24T06:05:21;0.47;;;0.47;;
934;SDS011;454;53.254;10.400;2023-04-24T06:07:48;0.60;;;0.60;;
934;SDS011;454;53.254;10.400;2023-04-24T06:10:15;0.83;;;0.83;;
934;SDS011;454;53.254;10.400;2023-04-24T06:12:41;0.70;;;0.70;;
934;SDS011;454;53.254;10.400;2023-04-24T06:15:09;0.80;;;0.80;;
934;SDS011;454;53.254;10.400;2023-04-24T06:17:36;0.40;;;0.40;;
934;SDS011;454;53.254;10.400;2023-04-24T06:20:05;0.40;;;0.40;;
934;SDS011;454;53.254;10.400;2023-04-24T06:22:33;0.30;;;0.30;;
934;SDS011;454;53.254;10.400;2023-04-24T06:25:00;0.50;;;0.50;;
934;SDS011;454;53.254;10.400;2023-04-24T06:27:27;0.40;;;0.40;;
934;SDS011;454;53.254;10.400;2023-04-24T06:29:54;0.80;;;0.80;;
934;SDS011;454;53.254;10.400;2023-04-24T06:32:21;0.30;;;0.30;;
934;SDS011;454;53.254;10.400;2023-04-24T06:34:48;0.30;;;0.30;;
934;SDS011;454;53.254;10.400;2023-04-24T06:37:20;0.47;;;0.47;;
934;SDS011;454;53.254;10.400;2023-04-24T06:39:47;0.20;;;0.20;;
934;SDS011;454;53.254;10.400;2023-04-24T06:42:13;4.83;;;0.37;;
934;SDS011;454;53.254;10.400;2023-04-24T06:44:40;0.40;;;0.40;;
934;SDS011;454;53.254;10.400;2023-04-24T06:47:07;0.47;;;0.47;;
934;SDS011;454;53.254;10.400;2023-04-24T06:49:34;1.07;;;0.50;;
934;SDS011;454;53.254;10.400;2023-04-24T06:52:01;0.60;;;0.60;;
934;SDS011;454;53.254;10.400;2023-04-24T06:54:30;0.37;;;0.37;;
934;SDS011;454;53.254;10.400;2023-04-24T06:56:57;0.27;;;0.27;;
934;SDS011;454;53.254;10.400;2023-04-24T06:59:25;0.40;;;0.40;;
934;SDS011;454;53.254;10.400;2023-04-24T07:01:52;0.40;;;0.40;;
934;SDS011;454;53.254;10.400;2023-04-24T07:04:19;0.87;;;0.50;;
934;SDS011;454;53.254;10.400;2023-04-24T07:06:45;0.30;;;0.30;;
934;SDS011;454;53.254;10.400;2023-04-24T07:09:13;0.30;;;0.30;;
934;SDS011;454;53.254;10.400;2023-04-24T07:11:42;0.30;;;0.30;;
934;SDS011;454;53.254;10.400;2023-04-24T07:14:09;0.20;;;0.20;;
934;SDS011;454;53.254;10.400;2023-04-24T07:16:36;0.37;;;0.37;;
934;SDS011;454;53.254;10.400;2023-04-24T07:19:03;0.40;;;0.40;;
934;SDS011;454;53.254;10.400;2023-04-24T07:21:30;0.40;;;0.40;;
934;SDS011;454;53.254;10.400;2023-04-24T07:23:57;0.30;;;0.30;;
934;SDS011;454;53.254;10.400;2023-04-24T07:26:24;1.43;;;0.40;;
934;SDS011;454;53.254;10.400;2023-04-24T07:28:53;0.20;;;0.20;;
934;SDS011;454;53.254;10.400;2023-04-24T07:31:19;0.20;;;0.20;;
934;SDS011;454;53.254;10.400;2023-04-24T07:33:46;1.13;;;0.57;;
934;SDS011;454;53.254;10.400;2023-04-24T07:36:13;0.77;;;0.77;;
934;SDS011;454;53.254;10.400;2023-04-24T07:38:43;0.40;;;0.40;;
934;SDS011;454;53.254;10.400;2023-04-24T07:41:10;0.50;;;0.50;;
934;SDS011;454;53.254;10.400;2023-04-24T07:43:37;0.47;;;0.47;;
934;SDS011;454;53.254;10.400;2023-04-24T07:46:05;0.50;;;0.50;;
934;SDS011;454;53.254;10.400;2023-04-24T07:48:32;0.47;;;0.47;;
934;SDS011;454;53.254;10.400;2023-04-24T07:50:59;0.33;;;0.33;;
934;SDS011;454;53.254;10.400;2023-04-24T07:53:26;0.40;;;0.40;;
934;SDS011;454;53.254;10.400;2023-04-24T07:55:53;0.30;;;0.30;;
934;SDS011;454;53.254;10.400;2023-04-24T07:58:20;0.33;;;0.33;;
934;SDS011;454;53.254;10.400;2023-04-24T08:00:47;1.13;;;0.40;;
934;SDS011;454;53.254;10.400;2023-04-24T08:03:15;0.30;;;0.30;;
934;SDS011;454;53.254;10.400;2023-04-24T08:05:44;0.77;;;0.50;;
934;SDS011;454;53.254;10.400;2023-04-24T08:08:11;0.70;;;0.70;;
934;SDS011;454;53.254;10.400;2023-04-24T08:10:38;0.40;;;0.40;;
934;SDS011;454;53.254;10.400;2023-04-24T08:13:05;0.40;;;0.40;;
934;SDS011;454;53.254;10.400;2023-04-24T08:15:32;0.50;;;0.50;;
934;SDS011;454;53.254;10.400;2023-04-24T08:17:58;0.47;;;0.47;;
934;SDS011;454;53.254;10.400;2023-04-24T08:20:27;0.63;;;0.63;;
934;SDS011;454;53.254;10.400;2023-04-24T08:22:53;2.00;;;0.33;;
934;SDS011;454;53.254;10.400;2023-04-24T08:25:21;0.87;;;0.87;;
934;SDS011;454;53.254;10.400;2023-04-24T08:27:49;1.07;;;0.60;;
934;SDS011;454;53.254;10.400;2023-04-24T08:30:16;0.60;;;0.60;;
934;SDS011;454;53.254;10.400;2023-04-24T08:32:43;11.13;;;0.70;;
934;SDS011;454;53.254;10.400;2023-04-24T08:35:10;0.50;;;0.50;;
934;SDS011;454;53.254;10.400;2023-04-24T08:37:38;0.87;;;0.87;;
934;SDS011;454;53.254;10.400;2023-04-24T08:40:06;0.50;;;0.50;;
934;SDS011;454;53.254;10.400;2023-04-24T08:42:37;1.17;;;1.17;;
934;SDS011;454;53.254;10.400;2023-04-24T08:45:06;0.67;;;0.67;;
934;SDS011;454;53.254;10.400;2023-04-24T08:47:33;0.63;;;0.63;;
934;SDS011;454;53.254;10.400;2023-04-24T08:50:01;0.70;;;0.70;;
934;SDS011;454;53.254;10.400;2023-04-24T08:52:30;0.90;;;0.90;;
934;SDS011;454;53.254;10.400;2023-04-24T08:55:00;1.83;;;1.10;;
934;SDS011;454;53.254;10.400;2023-04-24T08:57:27;1.10;;;1.10;;
934;SDS011;454;53.254;10.400;2023-04-24T08:59:55;0.53;;;0.53;;
934;SDS011;454;53.254;10.400;2023-04-24T09:02:24;0.57;;;0.57;;
934;SDS011;454;53.254;10.400;2023-04-24T09:04:51;1.50;;;1.40;;
934;SDS011;454;53.254;10.400;2023-04-24T09:07:19;0.83;;;0.83;;
934;SDS011;454;53.254;10.400;2023-04-24T09:09:48;1.40;;;1.40;;
934;SDS011;454;53.254;10.400;2023-04-24T09:12:18;1.40;;;1.40;;
934;SDS011;454;53.254;10.400;2023-04-24T09:14:45;1.27;;;1.27;;
934;SDS011;454;53.254;10.400;2023-04-24T09:17:12;1.73;;;1.70;;
934;SDS011;454;53.254;10.400;2023-04-24T09:19:39;1.70;;;1.60;;
934;SDS011;454;53.254;10.400;2023-04-24T09:22:06;3.93;;;1.70;;
934;SDS011;454;53.254;10.400;2023-04-24T09:24:33;3.70;;;2.70;;
934;SDS011;454;53.254;10.400;2023-04-24T09:27:01;1.80;;;1.70;;
934;SDS011;454;53.254;10.400;2023-04-24T09:29:30;2.43;;;2.17;;
934;SDS011;454;53.254;10.400;2023-04-24T09:31:57;1.57;;;1.57;;
934;SDS011;454;53.254;10.400;2023-04-24T09:34:25;1.47;;;1.47;;
934;SDS011;454;53.254;10.400;2023-04-24T09:36:53;3.90;;;2.07;;
934;SDS011;454;53.254;10.400;2023-04-24T09:39:20;2.10;;;2.00;;
934;SDS011;454;53.254;10.400;2023-04-24T09:41:47;1.10;;;1.10;;
934;SDS011;454;53.254;10.400;2023-04-24T09:44:16;2.17;;;2.07;;
934;SDS011;454;53.254;10.400;2023-04-24T09:46:49;1.60;;;1.60;;
934;SDS011;454;53.254;10.400;2023-04-24T09:49:21;2.07;;;1.97;;
934;SDS011;454;53.254;10.400;2023-04-24T09:51:49;1.67;;;1.57;;
934;SDS011;454;53.254;10.400;2023-04-24T09:54:17;1.70;;;1.70;;
934;SDS011;454;53.254;10.400;2023-04-24T09:56:45;2.13;;;1.93;;
934;SDS011;454;53.254;10.400;2023-04-24T09:59:13;1.93;;;1.83;;
934;SDS011;454;53.254;10.400;2023-04-24T10:01:41;2.00;;;1.80;;
934;SDS011;454;53.254;10.400;2023-04-24T10:04:17;2.23;;;2.13;;
934;SDS011;454;53.254;10.400;2023-04-24T10:06:45;1.20;;;1.20;;
934;SDS011;454;53.254;10.400;2023-04-24T10:09:13;2.63;;;2.50;;
934;SDS011;454;53.254;10.400;2023-04-24T10:11:41;1.57;;;1.57;;
934;SDS011;454;53.254;10.400;2023-04-24T10:14:10;2.33;;;2.23;;
934;SDS011;454;53.254;10.400;2023-04-24T10:16:39;1.47;;;1.47;;
934;SDS011;454;53.254;10.400;2023-04-24T10:19:06;2.50;;;2.40;;
934;SDS011;454;53.254;10.400;2023-04-24T10:21:35;1.90;;;1.80;;
934;SDS011;454;53.254;10.400;2023-04-24T10:24:03;1.67;;;1.57;;
934;SDS011;454;53.254;10.400;2023-04-24T10:26:32;1.60;;;1.53;;
934;SDS011;454;53.254;10.400;2023-04-24T10:29:00;2.93;;;2.57;;
934;SDS011;454;53.254;10.400;2023-04-24T10:31:28;2.00;;;1.80;;
934;SDS011;454;53.254;10.400;2023-04-24T10:33:57;5.60;;;1.73;;
934;SDS011;454;53.254;10.400;2023-04-24T10:36:25;2.90;;;2.67;;
934;SDS011;454;53.254;10.400;2023-04-24T10:38:59;2.50;;;2.30;;
934;SDS011;454;53.254;10.400;2023-04-24T10:41:28;4.30;;;2.47;;
934;SDS011;454;53.254;10.400;2023-04-24T10:44:06;2.60;;;2.50;;
934;SDS011;454;53.254;10.400;2023-04-24T10:46:33;2.23;;;2.03;;
934;SDS011;454;53.254;10.400;2023-04-24T10:49:03;1.40;;;1.40;;
934;SDS011;454;53.254;10.400;2023-04-24T10:54:23;2.17;;;2.07;;
934;SDS011;454;53.254;10.400;2023-04-24T10:56:53;2.67;;;2.47;;
934;SDS011;454;53.254;10.400;2023-04-24T11:00:10;2.10;;;2.00;;
934;SDS011;454;53.254;10.400;2023-04-24T11:02:40;5.57;;;1.73;;
934;SDS011;454;53.254;10.400;2023-04-24T11:05:14;1.60;;;1.50;;
934;SDS011;454;53.254;10.400;2023-04-24T11:10:39;1.87;;;1.70;;
934;SDS011;454;53.254;10.400;2023-04-24T11:13:10;2.30;;;2.13;;
934;SDS011;454;53.254;10.400;2023-04-24T11:15:41;2.03;;;1.93;;
934;SDS011;454;53.254;10.400;2023-04-24T11:18:12;2.60;;;2.23;;
934;SDS011;454;53.254;10.400;2023-04-24T11:20:41;2.20;;;2.10;;
934;SDS011;454;53.254;10.400;2023-04-24T11:23:08;2.47;;;2.37;;
934;SDS011;454;53.254;10.400;2023-04-24T11:25:39;1.30;;;1.30;;
934;SDS011;454;53.254;10.400;2023-04-24T11:28:07;1.90;;;1.83;;
934;SDS011;454;53.254;10.400;2023-04-24T11:30:40;1.80;;;1.80;;
934;SDS011;454;53.254;10.400;2023-04-24T11:33:07;1.70;;;1.60;;
934;SDS011;454;53.254;10.400;2023-04-24T11:35:39;1.13;;;1.13;;
934;SDS011;454;53.254;10.400;2023-04-24T11:38:06;1.30;;;1.30;;
934;SDS011;454;53.254;10.400;2023-04-24T11:40:33;2.67;;;0.93;;
934;SDS011;454;53.254;10.400;2023-04-24T11:43:02;1.03;;;1.03;;
934;SDS011;454;53.254;10.400;2023-04-24T11:45:30;1.70;;;1.70;;
934;SDS011;454;53.254;10.400;2023-04-24T11:47:57;1.13;;;1.13;;
934;SDS011;454;53.254;10.400;2023-04-24T11:50:24;1.00;;;1.00;;
934;SDS011;454;53.254;10.400;2023-04-24T11:52:54;1.60;;;1.53;;
934;SDS011;454;53.254;10.400;2023-04-24T11:55:25;0.97;;;0.97;;
934;SDS011;454;53.254;10.400;2023-04-24T11:57:54;9.73;;;1.47;;
934;SDS011;454;53.254;10.400;2023-04-24T12:00:24;1.60;;;1.57;;
934;SDS011;454;53.254;10.400;2023-04-24T12:02:59;2.13;;;2.03;;
934;SDS011;454;53.254;10.400;2023-04-24T12:05:30;1.30;;;1.30;;
934;SDS011;454;53.254;10.400;2023-04-24T12:07:57;2.67;;;2.47;;
934;SDS011;454;53.254;10.400;2023-04-24T12:10:25;1.50;;;1.43;;
934;SDS011;454;53.254;10.400;2023-04-24T12:12:53;1.37;;;1.37;;
934;SDS011;454;53.254;10.400;2023-04-24T12:15:23;1.40;;;1.40;;
934;SDS011;454;53.254;10.400;2023-04-24T12:17:51;1.77;;;1.67;;
934;SDS011;454;53.254;10.400;2023-04-24T12:20:23;1.20;;;1.20;;
934;SDS011;454;53.254;10.400;2023-04-24T12:22:51;2.90;;;1.70;;
934;SDS011;454;53.254;10.400;2023-04-24T12:25:20;1.40;;;1.37;;
934;SDS011;454;53.254;10.400;2023-04-24T12:27:51;1.73;;;1.63;;
934;SDS011;454;53.254;10.400;2023-04-24T12:30:19;1.07;;;1.07;;
934;SDS011;454;53.254;10.400;2023-04-24T12:32:48;1.43;;;1.40;;
934;SDS011;454;53.254;10.400;2023-04-24T12:35:18;0.87;;;0.87;;
934;SDS011;454;53.254;10.400;2023-04-24T12:37:46;1.87;;;1.63;;
934;SDS011;454;53.254;10.400;2023-04-24T12:40:13;1.80;;;1.73;;
934;SDS011;454;53.254;10.400;2023-04-24T12:42:41;1.30;;;1.30;;
934;SDS011;454;53.254;10.400;2023-04-24T12:45:09;2.10;;;2.07;;
934;SDS011;454;53.254;10.400;2023-04-24T12:47:37;1.00;;;1.00;;
934;SDS011;454;53.254;10.400;2023-04-24T12:50:07;1.03;;;1.00;;
934;SDS011;454;53.254;10.400;2023-04-24T12:52:35;1.53;;;1.53;;
934;SDS011;454;53.254;10.400;2023-04-24T12:55:03;1.70;;;1.60;;
934;SDS011;454;53.254;10.400;2023-04-24T12:57:33;0.90;;;0.90;;
934;SDS011;454;53.254;10.400;2023-04-24T13:00:00;0.70;;;0.70;;
934;SDS011;454;53.254;10.400;2023-04-24T13:02:28;1.57;;;1.47;;
934;SDS011;454;53.254;10.400;2023-04-24T13:04:55;0.80;;;0.80;;
934;SDS011;454;53.254;10.400;2023-04-24T13:07:24;1.40;;;1.37;;
934;SDS011;454;53.254;10.400;2023-04-24T13:09:51;1.10;;;1.10;;
934;SDS011;454;53.254;10.400;2023-04-24T13:12:18;1.00;;;1.00;;
934;SDS011;454;53.254;10.400;2023-04-24T13:14:46;0.87;;;0.87;;
934;SDS011;454;53.254;10.400;2023-04-24T13:17:13;1.10;;;1.10;;
934;SDS011;454;53.254;10.400;2023-04-24T13:19:41;1.10;;;1.10;;
934;SDS011;454;53.254;10.400;2023-04-24T13:22:09;0.80;;;0.80;;
934;SDS011;454;53.254;10.400;2023-04-24T13:24:38;0.80;;;0.80;;
934;SDS011;454;53.254;10.400;2023-04-24T13:27:06;1.03;;;1.03;;
934;SDS011;454;53.254;10.400;2023-04-24T13:29:34;1.80;;;1.70;;
934;SDS011;454;53.254;10.400;2023-04-24T13:32:00;1.20;;;1.20;;
934;SDS011;454;53.254;10.400;2023-04-24T13:34:27;1.00;;;1.00;;
934;SDS011;454;53.254;10.400;2023-04-24T13:36:54;1.13;;;1.13;;
934;SDS011;454;53.254;10.400;2023-04-24T13:39:23;0.73;;;0.73;;
934;SDS011;454;53.254;10.400;2023-04-24T13:41:52;1.00;;;1.00;;
934;SDS011;454;53.254;10.400;2023-04-24T13:44:19;2.20;;;1.00;;
934;SDS011;454;53.254;10.400;2023-04-24T13:46:47;0.70;;;0.67;;
934;SDS011;454;53.254;10.400;2023-04-24T13:49:16;0.70;;;0.70;;
934;SDS011;454;53.254;10.400;2023-04-24T13:51:44;1.10;;;1.10;;
934;SDS011;454;53.254;10.400;2023-04-24T13:54:10;0.90;;;0.90;;
934;SDS011;454;53.254;10.400;2023-04-24T13:56:38;1.07;;;1.07;;
934;SDS011;454;53.254;10.400;2023-04-24T13:59:06;0.90;;;0.90;;
934;SDS011;454;53.254;10.400;2023-04-24T14:01:33;1.07;;;1.07;;
934;SDS011;454;53.254;10.400;2023-04-24T14:04:00;1.07;;;1.07;;
934;SDS011;454;53.254;10.400;2023-04-24T14:06:27;0.67;;;0.67;;
934;SDS011;454;53.254;10.400;2023-04-24T14:08:54;0.97;;;0.97;;
934;SDS011;454;53.254;10.400;2023-04-24T14:11:21;1.27;;;1.27;;
934;SDS011;454;53.254;10.400;2023-04-24T14:13:48;0.57;;;0.57;;
934;SDS011;454;53.254;10.400;2023-04-24T14:16:16;1.03;;;1.03;;
934;SDS011;454;53.254;10.400;2023-04-24T14:18:43;1.60;;;1.50;;
934;SDS011;454;53.254;10.400;2023-04-24T14:21:10;0.90;;;0.90;;
934;SDS011;454;53.254;10.400;2023-04-24T14:23:37;1.07;;;1.07;;
934;SDS011;454;53.254;10.400;2023-04-24T14:26:04;1.13;;;0.93;;
934;SDS011;454;53.254;10.400;2023-04-24T14:28:31;0.80;;;0.80;;
934;SDS011;454;53.254;10.400;2023-04-24T14:30:58;1.40;;;1.40;;
934;SDS011;454;53.254;10.400;2023-04-24T14:33:26;1.30;;;1.20;;
934;SDS011;454;53.254;10.400;2023-04-24T14:35:53;0.67;;;0.67;;
934;SDS011;454;53.254;10.400;2023-04-24T14:38:20;2.80;;;1.27;;
934;SDS011;454;53.254;10.400;2023-04-24T14:40:48;1.47;;;1.20;;
934;SDS011;454;53.254;10.400;2023-04-24T14:43:14;2.53;;;0.93;;
934;SDS011;454;53.254;10.400;2023-04-24T14:45:41;0.53;;;0.53;;
934;SDS011;454;53.254;10.400;2023-04-24T14:48:08;1.23;;;0.63;;
934;SDS011;454;53.254;10.400;2023-04-24T14:50:37;0.30;;;0.30;;
934;SDS011;454;53.254;10.400;2023-04-24T14:53:04;0.40;;;0.40;;
934;SDS011;454;53.254;10.400;2023-04-24T14:55:31;0.43;;;0.40;;
934;SDS011;454;53.254;10.400;2023-04-24T14:57:58;0.40;;;0.40;;
934;SDS011;454;53.254;10.400;2023-04-24T15:00:25;0.30;;;0.30;;
934;SDS011;454;53.254;10.400;2023-04-24T15:02:52;0.30;;;0.30;;
934;SDS011;454;53.254;10.400;2023-04-24T15:05:20;0.33;;;0.33;;
934;SDS011;454;53.254;10.400;2023-04-24T15:07:48;0.50;;;0.50;;
934;SDS011;454;53.254;10.400;2023-04-24T15:10:15;0.40;;;0.40;;
934;SDS011;454;53.254;10.400;2023-04-24T15:12:42;0.50;;;0.50;;
934;SDS011;454;53.254;10.400;2023-04-24T15:15:09;0.40;;;0.40;;
934;SDS011;454;53.254;10.400;2023-04-24T15:17:36;0.77;;;0.67;;
934;SDS011;454;53.254;10.400;2023-04-24T15:20:03;0.40;;;0.40;;
934;SDS011;454;53.254;10.400;2023-04-24T15:22:31;0.57;;;0.57;;
934;SDS011;454;53.254;10.400;2023-04-24T15:24:59;0.30;;;0.30;;
934;SDS011;454;53.254;10.400;2023-04-24T15:27:27;0.33;;;0.33;;
934;SDS011;454;53.254;10.400;2023-04-24T15:30:05;0.40;;;0.30;;
934;SDS011;454;53.254;10.400;2023-04-24T15:32:33;0.57;;;0.57;;
934;SDS011;454;53.254;10.400;2023-04-24T15:35:00;0.60;;;0.60;;
934;SDS011;454;53.254;10.400;2023-04-24T15:37:26;0.35;;;0.35;;
934;SDS011;454;53.254;10.400;2023-04-24T15:39:53;0.63;;;0.63;;
934;SDS011;454;53.254;10.400;2023-04-24T15:42:21;0.60;;;0.47;;
934;SDS011;454;53.254;10.400;2023-04-24T15:44:48;0.50;;;0.50;;
934;SDS011;454;53.254;10.400;2023-04-24T15:47:15;0.22;;;0.22;;
934;SDS011;454;53.254;10.400;2023-04-24T15:49:41;0.97;;;0.97;;
934;SDS011;454;53.254;10.400;2023-04-24T15:52:08;0.32;;;0.32;;
934;SDS011;454;53.254;10.400;2023-04-24T15:54:35;0.40;;;0.40;;
934;SDS011;454;53.254;10.400;2023-04-24T15:57:03;0.47;;;0.47;;
934;SDS011;454;53.254;10.400;2023-04-24T15:59:31;0.20;;;0.20;;
934;SDS011;454;53.254;10.400;2023-04-24T16:01:58;0.40;;;0.40;;
934;SDS011;454;53.254;10.400;2023-04-24T16:04:24;0.65;;;0.65;;
934;SDS011;454;53.254;10.400;2023-04-24T16:06:51;0.22;;;0.22;;
934;SDS011;454;53.254;10.400;2023-04-24T16:09:18;0.95;;;0.85;;
934;SDS011;454;53.254;10.400;2023-04-24T16:11:45;1.23;;;0.50;;
934;SDS011;454;53.254;10.400;2023-04-24T16:14:12;2.25;;;1.23;;
934;SDS011;454;53.254;10.400;2023-04-24T16:16:40;1.33;;;1.33;;
934;SDS011;454;53.254;10.400;2023-04-24T16:19:07;1.65;;;1.60;;
934;SDS011;454;53.254;10.400;2023-04-24T16:21:33;0.80;;;0.80;;
934;SDS011;454;53.254;10.400;2023-04-24T16:24:00;1.35;;;1.25;;
934;SDS011;454;53.254;10.400;2023-04-24T16:26:27;0.65;;;0.60;;
934;SDS011;454;53.254;10.400;2023-04-24T16:28:54;0.80;;;0.80;;
934;SDS011;454;53.254;10.400;2023-04-24T16:31:20;2.63;;;2.53;;
934;SDS011;454;53.254;10.400;2023-04-24T16:33:48;2.17;;;1.42;;
934;SDS011;454;53.254;10.400;2023-04-24T16:36:15;0.30;;;0.30;;
934;SDS011;454;53.254;10.400;2023-04-24T16:38:42;1.65;;;0.45;;
934;SDS011;454;53.254;10.400;2023-04-24T16:41:09;1.20;;;0.98;;
934;SDS011;454;53.254;10.400;2023-04-24T16:43:35;0.47;;;0.47;;
934;SDS011;454;53.254;10.400;2023-04-24T16:46:02;0.75;;;0.75;;
934;SDS011;454;53.254;10.400;2023-04-24T16:48:31;0.60;;;0.60;;
934;SDS011;454;53.254;10.400;2023-04-24T16:50:59;4.68;;;1.48;;
934;SDS011;454;53.254;10.400;2023-04-24T16:53:26;0.75;;;0.75;;
934;SDS011;454;53.254;10.400;2023-04-24T16:55:52;0.50;;;0.50;;
934;SDS011;454;53.254;10.400;2023-04-24T16:58:19;1.15;;;1.15;;
934;SDS011;454;53.254;10.400;2023-04-24T17:00:46;0.60;;;0.60;;
934;SDS011;454;53.254;10.400;2023-04-24T17:03:13;1.00;;;0.70;;
934;SDS011;454;53.254;10.400;2023-04-24T17:05:39;1.02;;;1.00;;
934;SDS011;454;53.254;10.400;2023-04-24T17:08:07;1.08;;;0.90;;
934;SDS011;454;53.254;10.400;2023-04-24T17:10:34;1.63;;;1.52;;
934;SDS011;454;53.254;10.400;2023-04-24T17:13:01;0.63;;;0.63;;
934;SDS011;454;53.254;10.400;2023-04-24T17:15:28;0.85;;;0.82;;
934;SDS011;454;53.254;10.400;2023-04-24T17:17:54;1.17;;;0.73;;
934;SDS011;454;53.254;10.400;2023-04-24T17:20:21;1.00;;;1.00;;
934;SDS011;454;53.254;10.400;2023-04-24T17:22:48;0.82;;;0.82;;
934;SDS011;454;53.254;10.400;2023-04-24T17:25:16;0.80;;;0.80;;
934;SDS011;454;53.254;10.400;2023-04-24T17:27:43;1.15;;;1.05;;
934;SDS011;454;53.254;10.400;2023-04-24T17:30:11;2.38;;;0.60;;
934;SDS011;454;53.254;10.400;2023-04-24T17:32:38;4.32;;;0.95;;
934;SDS011;454;53.254;10.400;2023-04-24T17:35:06;1.15;;;1.13;;
934;SDS011;454;53.254;10.400;2023-04-24T17:37:33;1.30;;;1.17;;
934;SDS011;454;53.254;10.400;2023-04-24T17:40:00;0.60;;;0.60;;
934;SDS011;454;53.254;10.400;2023-04-24T17:42:29;1.40;;;1.40;;
934;SDS011;454;53.254;10.400;2023-04-24T17:44:56;1.38;;;0.90;;
934;SDS011;454;53.254;10.400;2023-04-24T17:47:23;1.65;;;1.10;;
934;SDS011;454;53.254;10.400;2023-04-24T17:49:51;0.77;;;0.70;;
934;SDS011;454;53.254;10.400;2023-04-24T17:52:18;1.50;;;1.40;;
934;SDS011;454;53.254;10.400;2023-04-24T17:54:44;1.00;;;1.00;;
934;SDS011;454;53.254;10.400;2023-04-24T17:57:13;1.73;;;1.33;;
934;SDS011;454;53.254;10.400;2023-04-24T17:59:41;1.15;;;1.15;;
934;SDS011;454;53.254;10.400;2023-04-24T18:02:08;2.13;;;2.03;;
934;SDS011;454;53.254;10.400;2023-04-24T18:04:35;1.40;;;1.40;;
934;SDS011;454;53.254;10.400;2023-04-24T18:07:02;4.22;;;2.63;;
934;SDS011;454;53.254;10.400;2023-04-24T18:09:29;0.70;;;0.70;;
934;SDS011;454;53.254;10.400;2023-04-24T18:11:56;2.03;;;2.03;;
934;SDS011;454;53.254;10.400;2023-04-24T18:14:23;1.73;;;1.63;;
934;SDS011;454;53.254;10.400;2023-04-24T18:16:53;1.80;;;1.70;;
934;SDS011;454;53.254;10.400;2023-04-24T18:19:21;1.13;;;1.00;;
934;SDS011;454;53.254;10.400;2023-04-24T18:21:48;2.90;;;1.35;;
934;SDS011;454;53.254;10.400;2023-04-24T18:24:14;1.42;;;1.27;;
934;SDS011;454;53.254;10.400;2023-04-24T18:26:41;2.38;;;2.28;;
934;SDS011;454;53.254;10.400;2023-04-24T18:29:08;1.80;;;1.80;;
934;SDS011;454;53.254;10.400;2023-04-24T18:31:35;1.45;;;1.45;;
934;SDS011;454;53.254;10.400;2023-04-24T18:34:03;2.83;;;2.72;;
934;SDS011;454;53.254;10.400;2023-04-24T18:36:29;2.03;;;1.92;;
934;SDS011;454;53.254;10.400;2023-04-24T18:38:56;1.50;;;1.23;;
934;SDS011;454;53.254;10.400;2023-04-24T18:41:23;1.00;;;1.00;;
934;SDS011;454;53.254;10.400;2023-04-24T18:43:50;2.47;;;2.22;;
934;SDS011;454;53.254;10.400;2023-04-24T18:46:17;1.50;;;1.50;;
934;SDS011;454;53.254;10.400;2023-04-24T18:48:43;1.60;;;1.33;;
934;SDS011;454;53.254;10.400;2023-04-24T18:51:11;2.58;;;2.40;;
934;SDS011;454;53.254;10.400;2023-04-24T18:53:38;1.55;;;1.42;;
934;SDS011;454;53.254;10.400;2023-04-24T18:56:05;3.15;;;2.30;;
934;SDS011;454;53.254;10.400;2023-04-24T18:58:32;2.55;;;1.60;;
934;SDS011;454;53.254;10.400;2023-04-24T19:00:59;3.67;;;3.47;;
934;SDS011;454;53.254;10.400;2023-04-24T19:03:25;1.73;;;1.65;;
934;SDS011;454;53.254;10.400;2023-04-24T19:05:53;1.13;;;1.13;;
934;SDS011;454;53.254;10.400;2023-04-24T19:08:21;1.00;;;1.00;;
934;SDS011;454;53.254;10.400;2023-04-24T19:10:48;2.75;;;2.65;;
934;SDS011;454;53.254;10.400;2023-04-24T19:13:15;1.65;;;1.65;;
934;SDS011;454;53.254;10.400;2023-04-24T19:15:42;1.02;;;0.90;;
934;SDS011;454;53.254;10.400;2023-04-24T19:18:09;0.60;;;0.57;;
934;SDS011;454;53.254;10.400;2023-04-24T19:20:35;0.60;;;0.60;;
934;SDS011;454;53.254;10.400;2023-04-24T19:23:02;20.65;;;2.22;;
934;SDS011;454;53.254;10.400;2023-04-24T19:25:31;0.80;;;0.70;;
934;SDS011;454;53.254;10.400;2023-04-24T19:27:58;1.80;;;1.80;;
934;SDS011;454;53.254;10.400;2023-04-24T19:30:24;0.85;;;0.82;;
934;SDS011;454;53.254;10.400;2023-04-24T19:32:51;0.95;;;0.95;;
934;SDS011;454;53.254;10.400;2023-04-24T19:35:18;1.02;;;0.95;;
934;SDS011;454;53.254;10.400;2023-04-24T19:37:45;1.08;;;1.08;;
934;SDS011;454;53.254;10.400;2023-04-24T19:40:11;2.63;;;1.58;;